sensor_id;sensor_type;location;lat;lon;timestamp;pressure;altitude;pressure_sealevel;temperature;humidity
38054;BME280;23859;50.672;7.164;2022-09-03T00:02:32;100287.97;;;16.80;63.81
38054;BME280;23859;50.672;7.164;2022-09-03T00:13:46;100282.59;;;16.95;62.77
38054;BME280;23859;50.672;7.164;2022-09-03T00:16:17;100278.44;;;16.92;63.33
38054;BME280;23859;50.672;7.164;2022-09-03T00:18:51;100283.25;;;16.97;63.15
38054;BME280;23859;50.672;7.164;2022-09-03T00:21:37;100278.16;;;17.02;63.06
38054;BME280;23859;50.672;7.164;2022-09-03T00:24:06;100281.97;;;16.93;64.26
38054;BME280;23859;50.672;7.164;2022-09-03T00:26:37;100277.78;;;17.05;63.38
38054;BME280;23859;50.672;7.164;2022-09-03T00:29:15;100277.78;;;17.05;63.87
38054;BME280;23859;50.672;7.164;2022-09-03T00:31:44;100281.78;;;16.80;65.32
38054;BME280;23859;50.672;7.164;2022-09-03T00:34:37;100277.22;;;16.66;65.67
38054;BME280;23859;50.672;7.164;2022-09-03T00:37:07;100275.16;;;16.54;66.34
38054;BME280;23859;50.672;7.164;2022-09-03T00:39:36;100276.22;;;16.81;65.64
38054;BME280;23859;50.672;7.164;2022-09-03T00:50:42;100268.44;;;16.35;67.56
38054;BME280;23859;50.672;7.164;2022-09-03T00:56:17;100279.00;;;16.14;68.39
38054;BME280;23859;50.672;7.164;2022-09-03T01:32:08;100169.44;;;15.22;68.76
38054;BME280;23859;50.672;7.164;2022-09-03T01:37:34;100273.13;;;15.97;67.94
38054;BME280;23859;50.672;7.164;2022-09-03T01:40:33;100269.63;;;16.10;66.78
38054;BME280;23859;50.672;7.164;2022-09-03T01:43:26;100269.69;;;16.02;66.71
38054;BME280;23859;50.672;7.164;2022-09-03T01:46:23;100269.88;;;16.01;67.10
38054;BME280;23859;50.672;7.164;2022-09-03T01:49:14;100266.72;;;15.98;67.36
38054;BME280;23859;50.672;7.164;2022-09-03T01:51:45;100270.25;;;15.98;67.87
38054;BME280;23859;50.672;7.164;2022-09-03T01:54:43;100266.06;;;15.96;67.31
38054;BME280;23859;50.672;7.164;2022-09-03T01:57:38;100259.72;;;15.97;68.74
38054;BME280;23859;50.672;7.164;2022-09-03T02:00:09;100261.44;;;15.90;68.02
38054;BME280;23859;50.672;7.164;2022-09-03T02:02:37;100253.78;;;16.01;67.86
38054;BME280;23859;50.672;7.164;2022-09-03T02:05:11;100263.22;;;15.97;67.72
38054;BME280;23859;50.672;7.164;2022-09-03T02:07:50;100265.31;;;15.87;68.18
38054;BME280;23859;50.672;7.164;2022-09-03T02:10:25;100256.78;;;15.84;68.27
38054;BME280;23859;50.672;7.164;2022-09-03T02:13:07;100257.44;;;15.86;67.59
38054;BME280;23859;50.672;7.164;2022-09-03T02:15:37;100251.41;;;15.84;68.27
38054;BME280;23859;50.672;7.164;2022-09-03T02:18:09;100252.91;;;15.86;67.88
38054;BME280;23859;50.672;7.164;2022-09-03T02:20:38;100247.34;;;15.88;66.97
38054;BME280;23859;50.672;7.164;2022-09-03T02:23:04;100249.84;;;15.89;67.74
38054;BME280;23859;50.672;7.164;2022-09-03T02:25:40;100251.03;;;15.87;67.46
38054;BME280;23859;50.672;7.164;2022-09-03T02:28:08;100251.03;;;15.87;66.97
38054;BME280;23859;50.672;7.164;2022-09-03T02:30:35;100246.88;;;15.84;67.18
38054;BME280;23859;50.672;7.164;2022-09-03T02:33:01;100248.53;;;15.85;67.45
38054;BME280;23859;50.672;7.164;2022-09-03T02:35:28;100247.34;;;15.88;67.75
38054;BME280;23859;50.672;7.164;2022-09-03T02:37:54;100247.34;;;15.88;66.61
38054;BME280;23859;50.672;7.164;2022-09-03T02:40:20;100251.72;;;15.89;67.23
38054;BME280;23859;50.672;7.164;2022-09-03T02:42:46;100251.34;;;15.92;67.21
38054;BME280;23859;50.672;7.164;2022-09-03T02:45:20;100244.97;;;15.93;66.23
38054;BME280;23859;50.672;7.164;2022-09-03T02:47:53;100247.31;;;15.96;67.31
38054;BME280;23859;50.672;7.164;2022-09-03T02:50:19;100250.81;;;15.96;67.02
38054;BME280;23859;50.672;7.164;2022-09-03T02:52:45;100241.16;;;16.09;62.66
38054;BME280;23859;50.672;7.164;2022-09-03T02:55:11;100236.38;;;16.19;65.92
38054;BME280;23859;50.672;7.164;2022-09-03T02:57:37;100254.50;;;16.17;65.28
38054;BME280;23859;50.672;7.164;2022-09-03T03:00:04;100243.06;;;16.23;63.42
38054;BME280;23859;50.672;7.164;2022-09-03T03:02:30;100232.09;;;16.33;61.32
38054;BME280;23859;50.672;7.164;2022-09-03T03:04:56;100233.50;;;16.43;61.19
38054;BME280;23859;50.672;7.164;2022-09-03T03:07:22;100234.47;;;16.50;61.56
38054;BME280;23859;50.672;7.164;2022-09-03T03:09:48;100231.66;;;16.58;59.62
38054;BME280;23859;50.672;7.164;2022-09-03T03:12:14;100235.28;;;16.65;58.21
38054;BME280;23859;50.672;7.164;2022-09-03T03:14:42;100229.47;;;16.76;57.75
38054;BME280;23859;50.672;7.164;2022-09-03T03:17:08;100236.41;;;16.85;58.13
38054;BME280;23859;50.672;7.164;2022-09-03T03:19:34;100236.75;;;16.96;57.77
38054;BME280;23859;50.672;7.164;2022-09-03T03:22:00;100238.09;;;17.00;57.25
38054;BME280;23859;50.672;7.164;2022-09-03T03:24:26;100234.94;;;16.97;58.95
38054;BME280;23859;50.672;7.164;2022-09-03T03:26:55;100230.09;;;16.92;57.91
38054;BME280;23859;50.672;7.164;2022-09-03T03:29:23;100227.97;;;16.88;59.39
38054;BME280;23859;50.672;7.164;2022-09-03T03:31:50;100231.50;;;16.88;57.79
38054;BME280;23859;50.672;7.164;2022-09-03T03:34:16;100227.63;;;16.91;57.44
38054;BME280;23859;50.672;7.164;2022-09-03T03:36:43;100225.66;;;16.99;57.60
38054;BME280;23859;50.672;7.164;2022-09-03T03:39:09;100233.53;;;17.01;57.89
38054;BME280;23859;50.672;7.164;2022-09-03T03:41:35;100237.78;;;17.10;56.13
38054;BME280;23859;50.672;7.164;2022-09-03T03:44:05;100228.69;;;17.11;59.00
38054;BME280;23859;50.672;7.164;2022-09-03T03:46:37;100228.50;;;17.12;56.27
38054;BME280;23859;50.672;7.164;2022-09-03T03:49:04;100229.16;;;17.14;57.74
38054;BME280;23859;50.672;7.164;2022-09-03T03:51:34;100231.66;;;17.16;56.46
38054;BME280;23859;50.672;7.164;2022-09-03T03:54:01;100230.66;;;17.17;58.74
38054;BME280;23859;50.672;7.164;2022-09-03T03:56:27;100234.34;;;17.16;58.81
38054;BME280;23859;50.672;7.164;2022-09-03T03:58:54;100234.94;;;17.11;59.27
38054;BME280;23859;50.672;7.164;2022-09-03T04:01:22;100235.75;;;17.12;58.87
38054;BME280;23859;50.672;7.164;2022-09-03T04:03:49;100233.88;;;17.12;58.42
38054;BME280;23859;50.672;7.164;2022-09-03T04:06:17;100232.41;;;17.10;57.91
38054;BME280;23859;50.672;7.164;2022-09-03T04:08:45;100235.47;;;17.07;58.55
38054;BME280;23859;50.672;7.164;2022-09-03T04:11:14;100232.31;;;17.03;57.61
38054;BME280;23859;50.672;7.164;2022-09-03T04:13:42;100235.19;;;17.02;58.61
38054;BME280;23859;50.672;7.164;2022-09-03T04:16:11;100235.19;;;17.02;58.63
38054;BME280;23859;50.672;7.164;2022-09-03T04:18:38;100240.31;;;16.97;58.66
38054;BME280;23859;50.672;7.164;2022-09-03T04:21:10;100234.00;;;16.90;59.38
38054;BME280;23859;50.672;7.164;2022-09-03T04:23:38;100233.72;;;16.85;60.36
38054;BME280;23859;50.672;7.164;2022-09-03T04:26:06;100229.75;;;16.81;60.50
38054;BME280;23859;50.672;7.164;2022-09-03T04:28:34;100233.63;;;16.78;61.89
38054;BME280;23859;50.672;7.164;2022-09-03T04:31:05;100227.63;;;16.76;62.32
38054;BME280;23859;50.672;7.164;2022-09-03T04:33:32;100219.94;;;16.73;61.39
38054;BME280;23859;50.672;7.164;2022-09-03T04:36:07;100226.13;;;16.74;61.80
38054;BME280;23859;50.672;7.164;2022-09-03T04:38:36;100229.81;;;16.73;61.91
38054;BME280;23859;50.672;7.164;2022-09-03T04:41:03;100217.41;;;16.72;61.74
38054;BME280;23859;50.672;7.164;2022-09-03T04:43:30;100225.47;;;16.72;61.91
38054;BME280;23859;50.672;7.164;2022-09-03T04:46:01;100222.44;;;16.75;61.84
38054;BME280;23859;50.672;7.164;2022-09-03T04:48:28;100223.72;;;16.79;61.26
38054;BME280;23859;50.672;7.164;2022-09-03T04:51:00;100226.88;;;16.82;60.45
38054;BME280;23859;50.672;7.164;2022-09-03T04:53:32;100224.66;;;16.86;61.18
38054;BME280;23859;50.672;7.164;2022-09-03T04:55:58;100226.59;;;16.92;60.44
38054;BME280;23859;50.672;7.164;2022-09-03T04:58:24;100226.03;;;16.96;60.46
38054;BME280;23859;50.672;7.164;2022-09-03T05:00:50;100233.53;;;17.01;60.12
38054;BME280;23859;50.672;7.164;2022-09-03T05:03:16;100227.81;;;17.04;60.17
38054;BME280;23859;50.672;7.164;2022-09-03T05:05:50;100227.41;;;17.07;60.02
38054;BME280;23859;50.672;7.164;2022-09-03T05:08:16;100235.75;;;17.12;59.60
38054;BME280;23859;50.672;7.164;2022-09-03T05:10:42;100245.28;;;17.14;59.21
38054;BME280;23859;50.672;7.164;2022-09-03T05:13:08;100236.69;;;17.19;59.01
38054;BME280;23859;50.672;7.164;2022-09-03T05:15:34;100244.00;;;17.25;59.71
38054;BME280;23859;50.672;7.164;2022-09-03T05:18:02;100237.25;;;17.29;60.55
38054;BME280;23859;50.672;7.164;2022-09-03T05:20:29;100241.00;;;17.34;59.74
38054;BME280;23859;50.672;7.164;2022-09-03T05:22:56;100233.63;;;17.36;59.83
38054;BME280;23859;50.672;7.164;2022-09-03T05:25:23;100234.88;;;17.40;59.32
38054;BME280;23859;50.672;7.164;2022-09-03T05:27:49;100230.91;;;17.50;58.47
38054;BME280;23859;50.672;7.164;2022-09-03T05:30:16;100237.56;;;17.54;58.60
38054;BME280;23859;50.672;7.164;2022-09-03T05:32:42;100235.50;;;17.56;57.80
38054;BME280;23859;50.672;7.164;2022-09-03T05:35:08;100230.59;;;17.60;57.84
38054;BME280;23859;50.672;7.164;2022-09-03T05:37:36;100241.78;;;17.63;57.45
38054;BME280;23859;50.672;7.164;2022-09-03T05:40:03;100230.47;;;17.68;57.14
38054;BME280;23859;50.672;7.164;2022-09-03T05:42:30;100230.53;;;17.74;57.50
38054;BME280;23859;50.672;7.164;2022-09-03T05:44:57;100228.28;;;17.78;58.36
38054;BME280;23859;50.672;7.164;2022-09-03T05:47:23;100237.81;;;17.80;56.23
38054;BME280;23859;50.672;7.164;2022-09-03T05:49:49;100234.13;;;17.81;56.41
38054;BME280;23859;50.672;7.164;2022-09-03T05:52:15;100233.72;;;17.84;56.76
38054;BME280;23859;50.672;7.164;2022-09-03T05:54:41;100244.94;;;17.88;56.63
38054;BME280;23859;50.672;7.164;2022-09-03T05:57:07;100240.00;;;17.91;55.63
38054;BME280;23859;50.672;7.164;2022-09-03T05:59:33;100241.03;;;17.90;56.29
38054;BME280;23859;50.672;7.164;2022-09-03T06:01:59;100238.34;;;17.90;55.90
38054;BME280;23859;50.672;7.164;2022-09-03T06:04:25;100237.53;;;17.90;55.65
38054;BME280;23859;50.672;7.164;2022-09-03T06:06:51;100243.47;;;18.06;55.06
38054;BME280;23859;50.672;7.164;2022-09-03T06:09:20;100244.63;;;17.97;55.55
38054;BME280;23859;50.672;7.164;2022-09-03T06:11:47;100250.06;;;18.03;54.92
38054;BME280;23859;50.672;7.164;2022-09-03T06:14:16;100242.25;;;18.08;54.77
38054;BME280;23859;50.672;7.164;2022-09-03T06:16:44;100246.84;;;18.14;54.99
38054;BME280;23859;50.672;7.164;2022-09-03T06:19:11;100244.00;;;18.16;55.16
38054;BME280;23859;50.672;7.164;2022-09-03T06:21:41;100250.47;;;18.21;54.43
38054;BME280;23859;50.672;7.164;2022-09-03T06:24:09;100249.13;;;18.32;54.73
38054;BME280;23859;50.672;7.164;2022-09-03T06:26:37;100253.44;;;18.54;53.91
38054;BME280;23859;50.672;7.164;2022-09-03T06:29:03;100251.03;;;18.65;54.23
38054;BME280;23859;50.672;7.164;2022-09-03T06:31:29;100252.72;;;18.66;53.53
38054;BME280;23859;50.672;7.164;2022-09-03T06:33:56;100251.94;;;18.72;53.22
38054;BME280;23859;50.672;7.164;2022-09-03T06:36:23;100255.69;;;18.77;53.76
38054;BME280;23859;50.672;7.164;2022-09-03T06:38:53;100252.41;;;18.82;53.46
38054;BME280;23859;50.672;7.164;2022-09-03T06:41:21;100255.34;;;18.87;53.21
38054;BME280;23859;50.672;7.164;2022-09-03T06:43:56;100255.09;;;18.82;52.64
38054;BME280;23859;50.672;7.164;2022-09-03T06:46:25;100254.91;;;18.83;53.73
38054;BME280;23859;50.672;7.164;2022-09-03T06:48:51;100256.16;;;18.87;53.12
38054;BME280;23859;50.672;7.164;2022-09-03T06:51:22;100260.28;;;18.83;53.35
38054;BME280;23859;50.672;7.164;2022-09-03T06:53:51;100260.63;;;19.01;53.03
38054;BME280;23859;50.672;7.164;2022-09-03T06:56:22;100258.25;;;18.85;52.97
38054;BME280;23859;50.672;7.164;2022-09-03T06:58:52;100267.47;;;18.76;53.23
38054;BME280;23859;50.672;7.164;2022-09-03T07:01:20;100261.03;;;18.71;54.12
38054;BME280;23859;50.672;7.164;2022-09-03T07:03:51;100265.00;;;18.75;54.84
38054;BME280;23859;50.672;7.164;2022-09-03T07:06:19;100267.81;;;18.40;58.12
38054;BME280;23859;50.672;7.164;2022-09-03T07:08:46;100286.31;;;17.51;66.33
38054;BME280;23859;50.672;7.164;2022-09-03T07:11:14;100281.56;;;16.81;72.75
38054;BME280;23859;50.672;7.164;2022-09-03T07:13:43;100285.97;;;16.46;76.48
38054;BME280;23859;50.672;7.164;2022-09-03T07:16:15;100286.94;;;16.08;77.55
38054;BME280;23859;50.672;7.164;2022-09-03T07:18:42;100293.91;;;15.64;83.55
38054;BME280;23859;50.672;7.164;2022-09-03T07:21:14;100300.28;;;15.17;93.72
38054;BME280;23859;50.672;7.164;2022-09-03T07:23:40;100292.63;;;15.06;96.89
38054;BME280;23859;50.672;7.164;2022-09-03T07:26:09;100303.69;;;15.03;95.18
38054;BME280;23859;50.672;7.164;2022-09-03T07:28:37;100302.69;;;14.96;98.39
38054;BME280;23859;50.672;7.164;2022-09-03T07:33:32;100306.03;;;14.98;100.00
38054;BME280;23859;50.672;7.164;2022-09-03T07:38:31;100304.03;;;15.00;98.87
38054;BME280;23859;50.672;7.164;2022-09-03T07:40:59;100304.38;;;15.05;95.83
38054;BME280;23859;50.672;7.164;2022-09-03T07:43:29;100307.66;;;15.15;95.88
38054;BME280;23859;50.672;7.164;2022-09-03T07:45:58;100306.00;;;15.14;92.29
38054;BME280;23859;50.672;7.164;2022-09-03T07:48:26;100307.03;;;15.05;95.47
38054;BME280;23859;50.672;7.164;2022-09-03T07:50:56;100310.41;;;14.99;97.16
38054;BME280;23859;50.672;7.164;2022-09-03T07:53:24;100320.44;;;14.97;99.74
38054;BME280;23859;50.672;7.164;2022-09-03T07:55:50;100315.88;;;15.06;100.00
38054;BME280;23859;50.672;7.164;2022-09-03T07:58:16;100314.69;;;15.16;97.77
38054;BME280;23859;50.672;7.164;2022-09-03T08:00:43;100317.53;;;15.15;98.22
38054;BME280;23859;50.672;7.164;2022-09-03T08:03:09;100308.66;;;15.22;97.57
38054;BME280;23859;50.672;7.164;2022-09-03T08:05:36;100315.88;;;15.22;96.59
38054;BME280;23859;50.672;7.164;2022-09-03T08:08:05;100316.69;;;15.22;98.13
38054;BME280;23859;50.672;7.164;2022-09-03T08:10:36;100320.34;;;15.29;96.38
38054;BME280;23859;50.672;7.164;2022-09-03T08:13:03;100320.84;;;15.40;97.58
38054;BME280;23859;50.672;7.164;2022-09-03T08:15:33;100322.63;;;15.48;97.17
38054;BME280;23859;50.672;7.164;2022-09-03T08:18:00;100317.53;;;15.61;94.08
38054;BME280;23859;50.672;7.164;2022-09-03T08:20:26;100319.63;;;15.73;95.84
38054;BME280;23859;50.672;7.164;2022-09-03T08:22:59;100318.00;;;15.95;91.85
38054;BME280;23859;50.672;7.164;2022-09-03T08:25:25;100313.66;;;16.16;92.03
38054;BME280;23859;50.672;7.164;2022-09-03T08:27:51;100309.94;;;16.47;87.66
38054;BME280;23859;50.672;7.164;2022-09-03T08:30:17;100310.78;;;16.62;86.08
38054;BME280;23859;50.672;7.164;2022-09-03T08:32:44;100313.59;;;16.83;87.40
38054;BME280;23859;50.672;7.164;2022-09-03T08:35:10;100315.84;;;16.79;87.74
38054;BME280;23859;50.672;7.164;2022-09-03T08:37:36;100314.34;;;16.91;87.13
38054;BME280;23859;50.672;7.164;2022-09-03T08:40:02;100309.84;;;16.92;85.48
38054;BME280;23859;50.672;7.164;2022-09-03T08:43:10;100309.47;;;17.09;84.78
38054;BME280;23859;50.672;7.164;2022-09-03T08:45:33;100316.13;;;17.13;87.46
38054;BME280;23859;50.672;7.164;2022-09-03T08:48:11;100313.09;;;17.31;86.10
38054;BME280;23859;50.672;7.164;2022-09-03T08:50:42;100317.09;;;17.35;81.90
38054;BME280;23859;50.672;7.164;2022-09-03T08:53:30;100322.34;;;17.57;83.64
38054;BME280;23859;50.672;7.164;2022-09-03T08:56:11;100328.50;;;17.86;84.52
38054;BME280;23859;50.672;7.164;2022-09-03T08:58:39;100319.03;;;18.11;80.68
38054;BME280;23859;50.672;7.164;2022-09-03T09:01:17;100319.41;;;18.22;81.95
38054;BME280;23859;50.672;7.164;2022-09-03T09:09:16;100316.13;;;18.69;78.19
38054;BME280;23859;50.672;7.164;2022-09-03T09:14:48;100318.22;;;18.73;73.31
38054;BME280;23859;50.672;7.164;2022-09-03T09:22:48;100310.97;;;18.73;72.18
38054;BME280;23859;50.672;7.164;2022-09-03T09:25:20;100308.88;;;18.96;70.74
38054;BME280;23859;50.672;7.164;2022-09-03T09:27:55;100310.47;;;19.18;70.57
38054;BME280;23859;50.672;7.164;2022-09-03T09:30:23;100314.00;;;19.19;71.39
38054;BME280;23859;50.672;7.164;2022-09-03T09:32:49;100309.53;;;19.32;69.22
38054;BME280;23859;50.672;7.164;2022-09-03T09:35:17;100307.44;;;19.34;69.18
38054;BME280;23859;50.672;7.164;2022-09-03T09:37:52;100317.09;;;19.16;68.02
38054;BME280;23859;50.672;7.164;2022-09-03T09:43:01;100310.44;;;18.84;68.22
38054;BME280;23859;50.672;7.164;2022-09-03T09:45:28;100308.81;;;18.90;69.48
38054;BME280;23859;50.672;7.164;2022-09-03T09:47:55;100304.31;;;18.97;70.40
38054;BME280;23859;50.672;7.164;2022-09-03T09:50:22;100308.22;;;18.94;69.63
38054;BME280;23859;50.672;7.164;2022-09-03T09:52:58;100317.34;;;18.93;69.11
38054;BME280;23859;50.672;7.164;2022-09-03T09:55:24;100312.31;;;19.11;69.42
38054;BME280;23859;50.672;7.164;2022-09-03T09:58:03;100314.69;;;19.00;68.22
38054;BME280;23859;50.672;7.164;2022-09-03T10:00:29;100307.38;;;18.94;68.43
38054;BME280;23859;50.672;7.164;2022-09-03T10:02:58;100309.69;;;18.97;67.86
38054;BME280;23859;50.672;7.164;2022-09-03T10:05:27;100310.72;;;18.96;66.69
38054;BME280;23859;50.672;7.164;2022-09-03T10:07:59;100303.22;;;18.91;67.94
38054;BME280;23859;50.672;7.164;2022-09-03T10:10:26;100315.56;;;19.07;68.04
38054;BME280;23859;50.672;7.164;2022-09-03T10:13:10;100302.13;;;19.47;66.37
38054;BME280;23859;50.672;7.164;2022-09-03T10:19:14;100302.25;;;20.52;62.13
38054;BME280;23859;50.672;7.164;2022-09-03T10:21:25;100302.03;;;20.98;61.64
38054;BME280;23859;50.672;7.164;2022-09-03T10:26:42;100304.03;;;21.42;59.17
38054;BME280;23859;50.672;7.164;2022-09-03T10:29:15;100305.34;;;21.07;60.58
38054;BME280;23859;50.672;7.164;2022-09-03T10:32:16;100307.03;;;20.63;61.97
38054;BME280;23859;50.672;7.164;2022-09-03T10:35:09;100307.66;;;20.45;62.52
38054;BME280;23859;50.672;7.164;2022-09-03T10:37:52;100305.34;;;20.36;63.55
38054;BME280;23859;50.672;7.164;2022-09-03T10:40:31;100312.59;;;20.22;63.25
38054;BME280;23859;50.672;7.164;2022-09-03T10:46:05;100305.94;;;20.18;63.78
38054;BME280;23859;50.672;7.164;2022-09-03T10:51:42;100301.19;;;20.59;63.15
38054;BME280;23859;50.672;7.164;2022-09-03T10:57:14;100295.22;;;20.83;62.88
38054;BME280;23859;50.672;7.164;2022-09-03T11:05:16;100301.63;;;20.88;63.18
38054;BME280;23859;50.672;7.164;2022-09-03T11:07:49;100307.84;;;21.15;62.05
38054;BME280;23859;50.672;7.164;2022-09-03T11:10:20;100299.88;;;21.39;62.36
38054;BME280;23859;50.672;7.164;2022-09-03T11:13:07;100298.91;;;21.77;60.77
38054;BME280;23859;50.672;7.164;2022-09-03T11:15:43;100297.31;;;21.63;60.37
38054;BME280;23859;50.672;7.164;2022-09-03T11:21:04;100284.53;;;22.14;59.49
38054;BME280;23859;50.672;7.164;2022-09-03T11:23:35;100287.63;;;22.17;58.72
38054;BME280;23859;50.672;7.164;2022-09-03T11:26:10;100273.28;;;22.48;58.11
38054;BME280;23859;50.672;7.164;2022-09-03T11:31:17;100269.63;;;22.60;58.82
38054;BME280;23859;50.672;7.164;2022-09-03T11:33:55;100268.75;;;22.66;58.65
38054;BME280;23859;50.672;7.164;2022-09-03T11:36:38;100263.06;;;23.16;57.73
38054;BME280;23859;50.672;7.164;2022-09-03T11:39:19;100253.75;;;24.07;54.72
38054;BME280;23859;50.672;7.164;2022-09-03T11:41:57;100257.84;;;23.50;55.00
38054;BME280;23859;50.672;7.164;2022-09-03T11:44:32;100250.13;;;23.65;55.11
38054;BME280;23859;50.672;7.164;2022-09-03T11:47:00;100238.19;;;25.73;50.51
38054;BME280;23859;50.672;7.164;2022-09-03T11:49:29;100242.50;;;28.76;43.56
38054;BME280;23859;50.672;7.164;2022-09-03T11:52:02;100233.63;;;28.64;41.89
38054;BME280;23859;50.672;7.164;2022-09-03T11:54:31;100242.88;;;28.27;43.30
38054;BME280;23859;50.672;7.164;2022-09-03T11:57:12;100240.66;;;27.55;45.50
38054;BME280;23859;50.672;7.164;2022-09-03T11:59:43;100245.06;;;26.20;48.57
38054;BME280;23859;50.672;7.164;2022-09-03T12:02:30;100244.22;;;26.03;49.03
38054;BME280;23859;50.672;7.164;2022-09-03T12:08:19;100246.84;;;25.20;50.17
38054;BME280;23859;50.672;7.164;2022-09-03T12:10:52;100240.91;;;25.00;50.96
38054;BME280;23859;50.672;7.164;2022-09-03T12:13:44;100243.88;;;25.21;50.15
38054;BME280;23859;50.672;7.164;2022-09-03T12:16:39;100235.63;;;26.72;46.19
38054;BME280;23859;50.672;7.164;2022-09-03T12:19:28;100229.66;;;26.75;47.28
38054;BME280;23859;50.672;7.164;2022-09-03T12:21:56;100233.28;;;26.31;47.63
38054;BME280;23859;50.672;7.164;2022-09-03T12:24:25;100234.69;;;25.39;50.44
38054;BME280;23859;50.672;7.164;2022-09-03T12:26:58;100228.59;;;25.32;50.09
38054;BME280;23859;50.672;7.164;2022-09-03T12:29:27;100230.38;;;25.26;50.96
38054;BME280;23859;50.672;7.164;2022-09-03T12:31:54;100224.28;;;25.86;49.87
38054;BME280;23859;50.672;7.164;2022-09-03T12:34:24;100222.09;;;27.14;46.29
38054;BME280;23859;50.672;7.164;2022-09-03T12:36:53;100230.41;;;26.54;47.14
38054;BME280;23859;50.672;7.164;2022-09-03T12:39:24;100235.97;;;26.59;47.82
38054;BME280;23859;50.672;7.164;2022-09-03T12:42:02;100233.56;;;26.46;47.94
38054;BME280;23859;50.672;7.164;2022-09-03T12:44:38;100230.28;;;26.00;48.73
38054;BME280;23859;50.672;7.164;2022-09-03T12:47:14;100234.06;;;25.59;50.03
38054;BME280;23859;50.672;7.164;2022-09-03T12:49:44;100248.94;;;25.18;50.45
38054;BME280;23859;50.672;7.164;2022-09-03T12:52:23;100238.78;;;25.25;50.54
38054;BME280;23859;50.672;7.164;2022-09-03T12:55:11;100231.81;;;25.17;50.87
38054;BME280;23859;50.672;7.164;2022-09-03T12:57:45;100229.31;;;24.70;51.78
38054;BME280;23859;50.672;7.164;2022-09-03T13:00:15;100223.38;;;24.96;51.95
38054;BME280;23859;50.672;7.164;2022-09-03T13:03:02;100227.19;;;24.72;51.86
38054;BME280;23859;50.672;7.164;2022-09-03T13:05:36;100224.25;;;24.62;52.48
38054;BME280;23859;50.672;7.164;2022-09-03T13:08:08;100213.00;;;24.70;52.04
38054;BME280;23859;50.672;7.164;2022-09-03T13:10:41;100224.84;;;24.76;51.56
38054;BME280;23859;50.672;7.164;2022-09-03T13:13:23;100218.94;;;24.67;52.73
38054;BME280;23859;50.672;7.164;2022-09-03T13:29:26;100206.72;;;24.81;52.75
38054;BME280;23859;50.672;7.164;2022-09-03T13:32:21;100208.38;;;24.93;52.86
38054;BME280;23859;50.672;7.164;2022-09-03T13:34:55;100205.28;;;25.01;52.73
38054;BME280;23859;50.672;7.164;2022-09-03T13:37:47;100203.78;;;25.17;52.00
38054;BME280;23859;50.672;7.164;2022-09-03T13:40:18;100209.78;;;25.19;52.42
38054;BME280;23859;50.672;7.164;2022-09-03T13:43:04;100213.22;;;25.26;52.07
38054;BME280;23859;50.672;7.164;2022-09-03T13:45:42;100205.50;;;25.23;51.57
38054;BME280;23859;50.672;7.164;2022-09-03T13:48:21;100204.53;;;25.40;51.54
38054;BME280;23859;50.672;7.164;2022-09-03T13:51:19;100207.66;;;25.21;51.59
38054;BME280;23859;50.672;7.164;2022-09-03T13:54:10;100205.53;;;25.11;52.09
38054;BME280;23859;50.672;7.164;2022-09-03T14:00:08;100211.09;;;25.28;51.02
38054;BME280;23859;50.672;7.164;2022-09-03T14:05:46;100133.00;;;25.17;50.70
38054;BME280;23859;50.672;7.164;2022-09-03T14:08:33;100201.50;;;25.64;51.73
38054;BME280;23859;50.672;7.164;2022-09-03T14:16:49;100198.03;;;25.80;49.48
38054;BME280;23859;50.672;7.164;2022-09-03T14:22:16;100195.44;;;25.62;49.70
38054;BME280;23859;50.672;7.164;2022-09-03T14:25:02;100202.25;;;25.49;50.38
38054;BME280;23859;50.672;7.164;2022-09-03T14:27:31;100191.31;;;25.60;50.28
38054;BME280;23859;50.672;7.164;2022-09-03T14:30:05;100197.94;;;25.92;49.26
38054;BME280;23859;50.672;7.164;2022-09-03T14:35:56;100186.53;;;25.95;49.14
38054;BME280;23859;50.672;7.164;2022-09-03T14:41:34;100199.53;;;26.04;49.38
38054;BME280;23859;50.672;7.164;2022-09-03T14:44:21;100200.09;;;25.90;49.83
38054;BME280;23859;50.672;7.164;2022-09-03T14:47:13;100203.38;;;25.75;50.25
38054;BME280;23859;50.672;7.164;2022-09-03T14:55:20;100212.03;;;25.22;51.50
38054;BME280;23859;50.672;7.164;2022-09-03T14:58:34;100209.22;;;25.17;52.94
38054;BME280;23859;50.672;7.164;2022-09-03T15:01:06;100204.09;;;25.32;51.95
38054;BME280;23859;50.672;7.164;2022-09-03T15:03:49;100202.44;;;25.31;51.39
38054;BME280;23859;50.672;7.164;2022-09-03T15:09:34;100206.31;;;25.35;51.69
38054;BME280;23859;50.672;7.164;2022-09-03T15:12:24;100207.47;;;25.39;51.50
38054;BME280;23859;50.672;7.164;2022-09-03T15:14:56;100205.69;;;25.44;51.53
38054;BME280;23859;50.672;7.164;2022-09-03T15:20:24;100218.88;;;25.36;51.63
38054;BME280;23859;50.672;7.164;2022-09-03T15:32:19;100249.69;;;24.27;59.81
38054;BME280;23859;50.672;7.164;2022-09-03T15:35:04;100257.00;;;23.86;62.79
38054;BME280;23859;50.672;7.164;2022-09-03T15:37:46;100268.03;;;23.55;65.40
38054;BME280;23859;50.672;7.164;2022-09-03T15:40:34;100269.47;;;23.04;68.93
38054;BME280;23859;50.672;7.164;2022-09-03T15:43:15;100271.38;;;22.55;71.45
38054;BME280;23859;50.672;7.164;2022-09-03T15:45:51;100272.88;;;22.44;71.64
38054;BME280;23859;50.672;7.164;2022-09-03T15:49:00;100277.25;;;22.45;72.04
38054;BME280;23859;50.672;7.164;2022-09-03T15:51:34;100286.69;;;22.36;72.13
38054;BME280;23859;50.672;7.164;2022-09-03T15:57:28;100310.88;;;21.38;85.09
38054;BME280;23859;50.672;7.164;2022-09-03T16:00:16;100335.91;;;20.49;94.00
38054;BME280;23859;50.672;7.164;2022-09-03T16:02:51;100349.53;;;20.15;95.56
38054;BME280;23859;50.672;7.164;2022-09-03T16:08:05;100359.41;;;19.49;100.00